Time;durP1;ratioP1;P1;durP2;ratioP2;P2;SDS_P1;SDS_P2;PMS_P1;PMS_P2;Temp;Humidity;BMP_temperature;BMP_pressure;BME280_temperature;BME280_humidity;BME280_pressure;Samples;Min_cycle;Max_cycle;Signal;HPM_P1;HPM_P2
2021/05/20 00:01:02;;;;;;;5.45;1.60;;;11.90;94.80;;;;;;5016468;28;20386;-84
2021/05/20 00:06:52;;;;;;;4.57;1.90;;;11.80;94.80;;;;;;5016527;28;20091;-84
2021/05/20 00:12:40;;;;;;;3.65;1.83;;;11.80;94.80;;;;;;5016520;28;20046;-84
2021/05/20 00:18:29;;;;;;;4.25;2.08;;;11.80;94.80;;;;;;5016285;28;20037;-85
2021/05/20 00:24:17;;;;;;;4.43;2.05;;;11.80;94.80;;;;;;5015850;28;20505;-84
2021/05/20 00:34:00;;;;;;;3.97;1.90;;;11.70;94.60;;;;;;5016058;28;20096;-84
2021/05/20 00:39:49;;;;;;;2.95;2.03;;;11.70;94.80;;;;;;5016056;28;20041;-85
2021/05/20 00:45:38;;;;;;;2.25;1.55;;;11.60;94.60;;;;;;5015759;28;20048;-85
2021/05/20 00:51:26;;;;;;;5.10;1.52;;;11.50;94.60;;;;;;5015529;28;20041;-84
2021/05/20 00:57:16;;;;;;;4.35;2.03;;;11.40;94.50;;;;;;5015506;28;20045;-84
2021/05/20 01:03:05;;;;;;;3.05;1.70;;;11.10;94.30;;;;;;5015073;28;20081;-85
2021/05/20 01:08:57;;;;;;;2.10;1.65;;;10.90;94.30;;;;;;5015411;28;20041;-84
2021/05/20 01:14:46;;;;;;;3.10;1.90;;;10.80;94.30;;;;;;5015036;28;20045;-86
2021/05/20 01:20:40;;;;;;;4.53;1.60;;;10.60;94.30;;;;;;5014926;28;20037;-87
2021/05/20 01:26:30;;;;;;;3.10;2.08;;;10.50;94.40;;;;;;5015046;28;20056;-87
2021/05/20 01:36:12;;;;;;;4.07;2.00;;;10.30;94.40;;;;;;5014938;28;20189;-84
2021/05/20 01:42:01;;;;;;;5.18;2.10;;;10.20;94.40;;;;;;5014400;28;20489;-86
2021/05/20 01:47:49;;;;;;;4.90;2.22;;;10.10;94.40;;;;;;5014396;28;20025;-86
2021/05/20 01:53:39;;;;;;;4.72;2.15;;;10.10;94.40;;;;;;5014599;28;20049;-85
2021/05/20 01:59:28;;;;;;;5.07;2.33;;;9.90;94.40;;;;;;5014181;28;20445;-85
2021/05/20 02:05:17;;;;;;;5.80;2.45;;;9.90;94.50;;;;;;5014098;28;20072;-86
2021/05/20 02:11:08;;;;;;;7.43;2.85;;;9.80;94.50;;;;;;5014048;28;20072;-86
2021/05/20 02:16:56;;;;;;;5.53;2.50;;;9.70;94.50;;;;;;5013960;28;20033;-86
2021/05/20 02:22:45;;;;;;;5.25;2.05;;;9.60;94.40;;;;;;5012972;28;20092;-86
2021/05/20 02:28:33;;;;;;;5.35;2.53;;;9.50;94.40;;;;;;5014081;28;20390;-87
2021/05/20 02:38:16;;;;;;;7.93;3.03;;;9.40;94.40;;;;;;5014021;28;20064;-85
2021/05/20 02:44:05;;;;;;;10.25;3.90;;;9.30;94.40;;;;;;5013853;28;20092;-85
2021/05/20 02:49:55;;;;;;;8.85;3.40;;;9.20;94.50;;;;;;5013674;28;20049;-84
2021/05/20 02:55:44;;;;;;;7.43;3.30;;;9.20;94.50;;;;;;5013655;28;20215;-85
2021/05/20 03:01:39;;;;;;;6.97;3.25;;;9.10;94.60;;;;;;5013691;28;20121;-84
2021/05/20 03:07:27;;;;;;;7.55;3.65;;;9.20;94.80;;;;;;5013475;28;20041;-84
2021/05/20 03:13:16;;;;;;;10.23;4.13;;;9.30;94.80;;;;;;5013766;28;20053;-86
2021/05/20 03:19:05;;;;;;;10.85;3.80;;;9.40;95.00;;;;;;5013711;28;20028;-86
2021/05/20 03:24:54;;;;;;;8.82;3.92;;;9.50;95.10;;;;;;5013458;28;20037;-86
2021/05/20 03:30:42;;;;;;;6.90;3.25;;;9.60;95.10;;;;;;5013335;28;20072;-85
2021/05/20 03:40:25;;;;;;;8.07;3.58;;;9.70;94.90;;;;;;5017186;28;20080;-85
2021/05/20 03:46:14;;;;;;;8.73;3.70;;;9.70;95.10;;;;;;5016591;28;20033;-85
2021/05/20 03:52:02;;;;;;;62.42;38.97;;;9.80;95.10;;;;;;5016896;28;20084;-86
2021/05/20 03:57:50;;;;;;;9.40;3.85;;;9.90;95.10;;;;;;5016862;28;20041;-85
2021/05/20 04:03:39;;;;;;;8.05;3.70;;;10.10;95.30;;;;;;5016383;28;20489;-86
2021/05/20 04:09:27;;;;;;;7.20;3.53;;;10.30;95.40;;;;;;5016299;28;20048;-86
2021/05/20 04:15:16;;;;;;;9.45;4.68;;;10.40;95.30;;;;;;5016102;28;20041;-86
2021/05/20 04:21:06;;;;;;;9.00;4.13;;;10.50;95.30;;;;;;5015981;28;20397;-86
2021/05/20 04:26:55;;;;;;;9.13;4.18;;;10.50;95.10;;;;;;5016156;28;20037;-86
2021/05/20 04:32:44;;;;;;;20.45;10.40;;;10.60;95.20;;;;;;5015799;28;20437;-85
2021/05/20 04:42:27;;;;;;;9.80;4.40;;;10.70;95.10;;;;;;5015735;28;20088;-84
2021/05/20 04:48:15;;;;;;;10.70;4.35;;;10.70;95.20;;;;;;5015690;28;20036;-85
2021/05/20 04:54:05;;;;;;;9.00;4.20;;;10.90;95.20;;;;;;5015571;28;20033;-85
2021/05/20 04:59:53;;;;;;;8.95;3.92;;;11.00;95.40;;;;;;5015246;28;20072;-86
2021/05/20 05:05:41;;;;;;;7.82;3.40;;;11.20;95.30;;;;;;5015463;28;20045;-86
2021/05/20 05:11:31;;;;;;;7.85;3.53;;;11.30;95.40;;;;;;5015057;28;20385;-86
2021/05/20 05:17:20;;;;;;;7.40;3.45;;;11.50;95.10;;;;;;5015190;28;20041;-86
2021/05/20 05:23:08;;;;;;;6.75;3.10;;;11.60;95.40;;;;;;5014951;28;20129;-85
2021/05/20 05:28:57;;;;;;;10.00;3.67;;;11.70;95.10;;;;;;5015099;28;20129;-80
2021/05/20 05:34:46;;;;;;;11.48;5.38;;;11.80;95.00;;;;;;5014685;28;20032;-89
2021/05/20 05:44:28;;;;;;;6.38;3.00;;;12.00;95.50;;;;;;5014880;28;20056;-89
2021/05/20 05:50:25;;;;;;;5.43;2.45;;;12.20;95.20;;;;;;5014591;28;20100;-86
2021/05/20 05:56:13;;;;;;;6.90;2.63;;;12.50;95.50;;;;;;5014142;28;20536;-84
2021/05/20 06:02:02;;;;;;;4.72;2.65;;;12.90;95.50;;;;;;5014340;28;20048;-85
2021/05/20 06:07:50;;;;;;;5.57;2.63;;;13.10;95.30;;;;;;5014138;28;20040;-85
2021/05/20 06:13:39;;;;;;;9.32;4.53;;;13.40;95.30;;;;;;5014165;28;20081;-85
2021/05/20 06:19:31;;;;;;;9.00;3.85;;;13.40;94.70;;;;;;5014141;28;20040;-85
2021/05/20 06:25:19;;;;;;;11.25;5.15;;;13.40;94.70;;;;;;5013840;28;20040;-84
2021/05/20 06:31:07;;;;;;;10.85;4.85;;;13.50;95.00;;;;;;5014016;28;20377;-85
2021/05/20 06:36:58;;;;;;;12.50;5.72;;;13.60;94.80;;;;;;5013675;28;20037;-84
2021/05/20 06:46:41;;;;;;;11.25;5.95;;;13.60;94.70;;;;;;5013976;28;20093;-84
2021/05/20 06:52:30;;;;;;;11.02;5.18;;;14.00;95.70;;;;;;5013850;28;20128;-85
2021/05/20 07:04:26;;;;;;;11.35;6.13;;;14.20;94.60;;;;;;5013698;28;20052;-85
2021/05/20 07:10:16;;;;;;;11.48;5.70;;;14.50;95.30;;;;;;5017328;28;20033;-86
2021/05/20 07:16:05;;;;;;;10.32;5.28;;;14.70;95.00;;;;;;5017153;28;20092;-85
2021/05/20 07:21:53;;;;;;;15.02;5.45;;;15.10;95.20;;;;;;5016956;28;20044;-85
2021/05/20 07:27:42;;;;;;;9.13;4.80;;;15.10;94.30;;;;;;5017148;28;20041;-85
2021/05/20 07:33:31;;;;;;;17.60;6.57;;;14.90;94.00;;;;;;5017153;28;20445;-85
2021/05/20 07:39:20;;;;;;;10.15;5.57;;;14.90;94.50;;;;;;5017033;28;20040;-84
2021/05/20 07:49:10;;;;;;;7.30;3.63;;;15.30;95.10;;;;;;5016573;28;20040;-84
2021/05/20 07:54:58;;;;;;;8.02;4.00;;;15.40;94.40;;;;;;5016752;28;20033;-84
2021/05/20 08:00:46;;;;;;;7.03;3.95;;;15.50;94.50;;;;;;5016648;28;20044;-84
2021/05/20 08:12:26;;;;;;;10.32;4.05;;;14.40;92.50;;;;;;5016794;28;20037;-83
2021/05/20 08:18:18;;;;;;;9.60;5.63;;;13.70;93.40;;;;;;5016246;28;20040;-85
2021/05/20 08:24:07;;;;;;;9.10;4.10;;;13.50;94.10;;;;;;5016159;28;20056;-85
2021/05/20 08:29:55;;;;;;;10.02;5.18;;;13.30;93.70;;;;;;5016100;28;20065;-85
2021/05/20 08:35:43;;;;;;;4.20;2.00;;;12.90;93.40;;;;;;5015968;28;20041;-85
2021/05/20 08:41:36;;;;;;;3.43;1.63;;;13.00;95.00;;;;;;5015695;28;20489;-85
2021/05/20 08:51:28;;;;;;;3.42;1.95;;;14.30;95.20;;;;;;5015769;28;20492;-84
2021/05/20 08:57:22;;;;;;;3.30;2.00;;;14.10;93.90;;;;;;5015346;28;20040;-85
2021/05/20 09:03:13;;;;;;;4.10;1.98;;;13.30;92.70;;;;;;5015207;28;20040;-86
2021/05/20 09:09:01;;;;;;;1.63;1.50;;;13.20;94.30;;;;;;5015384;28;20501;-85
2021/05/20 09:14:49;;;;;;;2.10;1.48;;;13.40;94.30;;;;;;5014991;28;20040;-88
2021/05/20 09:20:46;;;;;;;3.97;1.80;;;13.50;94.30;;;;;;5014758;28;20033;-88
2021/05/20 09:26:37;;;;;;;3.25;1.95;;;13.50;94.20;;;;;;5015041;28;20122;-88
2021/05/20 09:32:33;;;;;;;2.30;1.80;;;13.50;94.50;;;;;;5014163;28;20044;-85
2021/05/20 09:38:24;;;;;;;5.47;2.72;;;13.70;94.60;;;;;;5014877;28;20037;-86
2021/05/20 09:44:30;;;;;;;4.88;2.50;;;13.90;95.20;;;;;;5014612;28;20065;-86
2021/05/20 09:54:43;;;;;;;5.53;2.75;;;15.50;96.80;;;;;;5014645;28;20156;-84
2021/05/20 10:00:32;;;;;;;6.93;2.72;;;16.90;96.70;;;;;;5014138;28;20533;-87
2021/05/20 10:06:42;;;;;;;4.63;2.35;;;18.00;96.30;;;;;;5014374;28;20494;-85
2021/05/20 10:12:33;;;;;;;4.45;1.90;;;17.60;93.20;;;;;;5014249;28;20027;-85
2021/05/20 10:18:25;;;;;;;2.78;1.80;;;15.30;90.00;;;;;;5014190;28;20041;-85
2021/05/20 10:24:15;;;;;;;2.95;1.67;;;14.20;92.50;;;;;;5015197;28;20117;-85
2021/05/20 10:30:05;;;;;;;2.67;1.83;;;14.10;93.80;;;;;;5013780;28;20036;-85
2021/05/20 10:35:57;;;;;;;2.35;1.67;;;14.60;94.40;;;;;;5014064;28;20394;-84
2021/05/20 10:41:45;;;;;;;2.95;1.75;;;15.10;94.50;;;;;;5013624;28;20028;-84
2021/05/20 10:47:54;;;;;;;3.00;1.70;;;15.70;94.80;;;;;;5017903;28;20073;-85
2021/05/20 10:54:07;;;;;;;2.10;1.83;;;16.60;94.90;;;;;;5017605;28;20076;-83
2021/05/20 10:59:56;;;;;;;3.00;2.10;;;17.80;96.20;;;;;;5017429;28;20040;-84
2021/05/20 11:05:45;;;;;;;3.13;2.08;;;19.20;96.30;;;;;;5017353;28;20069;-85
2021/05/20 11:11:35;;;;;;;3.70;2.03;;;19.90;95.50;;;;;;5017320;28;20052;-87
2021/05/20 11:17:35;;;;;;;4.88;2.20;;;20.70;93.70;;;;;;5017210;28;20053;-89
2021/05/20 11:23:25;;;;;;;1.60;1.50;;;18.40;84.20;;;;;;5017064;28;20548;-87
2021/05/20 11:29:15;;;;;;;2.92;1.65;;;15.90;87.20;;;;;;5017062;28;20536;-86
2021/05/20 11:35:22;;;;;;;1.40;1.30;;;15.80;92.20;;;;;;5017155;28;20075;-85
2021/05/20 11:41:17;;;;;;;3.47;2.15;;;15.90;92.90;;;;;;5016702;28;20025;-86
2021/05/20 11:47:09;;;;;;;3.90;2.35;;;16.40;94.20;;;;;;5016656;28;20509;-85
2021/05/20 11:57:02;;;;;;;2.90;1.80;;;17.40;94.40;;;;;;5016832;28;20048;-83
2021/05/20 12:02:55;;;;;;;5.25;2.75;;;17.90;93.70;;;;;;5016269;28;20040;-85
2021/05/20 12:08:43;;;;;;;4.03;2.30;;;18.30;94.60;;;;;;5016293;28;20429;-85
2021/05/20 12:14:33;;;;;;;2.75;1.90;;;19.70;96.70;;;;;;5016339;28;20092;-85
2021/05/20 12:20:24;;;;;;;3.92;2.08;;;20.40;93.40;;;;;;5016016;28;20045;-87
2021/05/20 12:26:26;;;;;;;2.80;1.83;;;19.10;92.40;;;;;;5016333;28;20121;-86
2021/05/20 12:32:38;;;;;;;3.03;1.83;;;18.40;93.40;;;;;;5016397;28;20041;-85
2021/05/20 12:38:29;;;;;;;1.80;1.60;;;18.70;95.30;;;;;;5016194;28;20117;-86
2021/05/20 12:44:18;;;;;;;2.22;1.52;;;19.50;95.50;;;;;;5015919;28;20084;-85
2021/05/20 12:50:06;;;;;;;3.28;1.45;;;21.30;96.30;;;;;;5015765;28;20064;-85
2021/05/20 13:00:02;;;;;;;1.95;1.33;;;22.20;95.30;;;;;;5015647;28;20052;-85
2021/05/20 13:05:53;;;;;;;2.63;1.88;;;24.40;97.00;;;;;;5014587;28;20054;-85
2021/05/20 13:11:49;;;;;;;1.75;1.40;;;25.30;94.00;;;;;;5015087;28;20036;-85
2021/05/20 13:23:23;;;;;;;5.15;1.90;;;22.70;92.70;;;;;;5014759;28;20154;-86
2021/05/20 13:29:12;;;;;;;3.22;1.98;;;22.80;94.20;;;;;;5015181;28;20389;-88
2021/05/20 13:35:01;;;;;;;2.85;1.80;;;25.40;96.90;;;;;;5014778;28;20040;-84
2021/05/20 13:40:54;;;;;;;1.48;1.30;;;26.40;94.70;;;;;;5014780;28;20057;-84
2021/05/20 13:46:43;;;;;;;2.65;1.83;;;26.20;94.50;;;;;;5014786;28;20488;-83
2021/05/20 13:52:58;;;;;;;1.70;1.60;;;27.60;94.80;;;;;;5014374;28;20092;-84
2021/05/20 14:02:46;;;;;;;2.65;1.70;;;29.10;91.50;;;;;;5014222;28;20052;-85
2021/05/20 14:08:35;;;;;;;1.25;1.25;;;32.80;98.30;;;;;;5014178;28;20091;-85
2021/05/20 14:14:23;;;;;;;1.77;1.35;;;36.70;97.40;;;;;;5014075;28;20106;-84
2021/05/20 14:20:19;;;;;;;1.38;1.38;;;34.60;88.40;;;;;;5014233;28;20040;-84
2021/05/20 14:26:07;;;;;;;2.20;1.25;;;32.90;85.90;;;;;;5013877;28;20076;-83
2021/05/20 14:31:56;;;;;;;1.00;0.85;;;31.30;90.80;;;;;;5014050;28;20033;-83
2021/05/20 14:37:44;;;;;;;0.80;0.80;;;30.30;89.50;;;;;;5013699;28;20044;-84
2021/05/20 14:43:33;;;;;;;1.27;1.20;;;31.60;95.40;;;;;;5013698;28;20095;-84
2021/05/20 14:55:41;;;;;;;2.53;1.30;;;30.40;77.40;;;;;;5013762;28;20033;-84
2021/05/20 15:05:34;;;;;;;1.80;1.27;;;27.20;90.10;;;;;;5013447;28;20066;-85
2021/05/20 15:11:34;;;;;;;1.67;1.45;;;25.90;89.60;;;;;;5013429;28;20037;-86
2021/05/20 15:17:30;;;;;;;2.33;1.60;;;25.40;92.40;;;;;;5013361;28;20489;-86
2021/05/20 15:23:20;;;;;;;3.90;1.52;;;25.40;91.90;;;;;;5013215;28;20049;-86
2021/05/20 15:29:08;;;;;;;2.83;1.70;;;28.60;99.90;;;;;;5014053;28;20029;-84
2021/05/20 15:34:57;;;;;;;0.82;0.65;;;36.50;99.90;;;;;;5016910;28;20097;-85
2021/05/20 15:40:46;;;;;;;2.50;1.70;;;35.30;86.10;;;;;;5016748;28;20037;-85
2021/05/20 15:46:37;;;;;;;1.40;1.10;;;36.90;96.00;;;;;;5016654;28;20095;-85
2021/05/20 15:52:26;;;;;;;1.52;1.30;;;37.80;88.10;;;;;;5016589;28;20529;-85
2021/05/20 15:58:13;;;;;;;1.25;1.15;;;34.40;78.50;;;;;;5016431;28;20083;-84
2021/05/20 16:08:07;;;;;;;4.13;1.60;;;28.50;85.10;;;;;;5017310;28;20053;-84
2021/05/20 16:19:43;;;;;;;2.70;1.75;;;26.00;95.60;;;;;;5016310;28;20037;-88
2021/05/20 16:37:45;;;;;;;1.95;1.52;;;30.70;92.80;;;;;;5016045;28;20437;-84
2021/05/20 16:43:33;;;;;;;1.73;1.60;;;31.20;90.30;;;;;;5015630;28;20049;-84
2021/05/20 16:49:21;;;;;;;5.25;2.30;;;28.30;84.80;;;;;;5015755;28;20021;-84
2021/05/20 16:55:15;;;;;;;3.22;2.10;;;27.00;91.30;;;;;;5015833;28;20033;-86
2021/05/20 17:01:03;;;;;;;3.90;1.92;;;27.20;91.40;;;;;;5015830;28;20072;-85
2021/05/20 17:10:55;;;;;;;1.98;1.60;;;26.40;90.80;;;;;;5015289;28;20501;-84
2021/05/20 17:16:44;;;;;;;2.20;1.48;;;25.40;90.20;;;;;;5015405;28;20036;-84
2021/05/20 17:22:34;;;;;;;2.75;1.45;;;24.70;91.00;;;;;;5014999;28;20552;-85
2021/05/20 17:28:23;;;;;;;2.47;1.75;;;23.90;90.80;;;;;;5015007;28;20060;-86
2021/05/20 17:34:12;;;;;;;2.67;1.80;;;23.00;91.40;;;;;;5014850;28;20544;-86
2021/05/20 17:40:03;;;;;;;2.28;1.80;;;22.60;92.30;;;;;;5014795;28;20048;-84
2021/05/20 17:45:54;;;;;;;7.00;2.22;;;22.30;92.00;;;;;;5014368;28;20029;-86
2021/05/20 17:51:42;;;;;;;2.10;1.70;;;22.00;92.40;;;;;;5014320;28;20492;-85
2021/05/20 17:57:31;;;;;;;4.05;2.47;;;21.60;92.40;;;;;;5014265;28;20040;-86
2021/05/20 18:03:21;;;;;;;2.53;1.70;;;21.20;92.30;;;;;;5014178;28;20037;-88
2021/05/20 18:13:33;;;;;;;4.57;1.90;;;20.30;92.20;;;;;;5014397;28;20049;-87
2021/05/20 18:25:22;;;;;;;6.93;2.83;;;19.50;92.90;;;;;;5014160;28;20540;-86
2021/05/20 18:31:12;;;;;;;12.98;2.97;;;19.30;93.20;;;;;;5014015;28;20386;-86
2021/05/20 18:37:01;;;;;;;6.13;2.42;;;18.90;93.00;;;;;;5013706;28;20084;-87
2021/05/20 18:42:50;;;;;;;3.88;1.98;;;18.60;93.20;;;;;;5013684;28;20041;-87
2021/05/20 18:48:38;;;;;;;3.70;2.05;;;18.30;93.30;;;;;;5013940;28;20082;-88
2021/05/20 18:54:29;;;;;;;3.63;1.88;;;18.10;93.50;;;;;;5015379;28;20045;-87
2021/05/20 19:00:23;;;;;;;3.88;1.88;;;17.80;93.40;;;;;;5013631;28;20386;-88
2021/05/20 19:06:14;;;;;;;3.65;1.77;;;17.50;93.40;;;;;;5017729;28;20040;-86
2021/05/20 19:16:05;;;;;;;2.80;1.63;;;16.90;93.50;;;;;;5017605;28;20057;-86
2021/05/20 19:21:57;;;;;;;3.80;1.73;;;16.60;93.70;;;;;;5017094;28;20036;-86
2021/05/20 19:27:47;;;;;;;3.58;2.20;;;16.40;93.70;;;;;;5017099;28;20044;-86
2021/05/20 19:33:35;;;;;;;4.30;2.10;;;16.10;93.90;;;;;;5017222;28;20552;-86
2021/05/20 19:39:25;;;;;;;5.28;2.55;;;16.00;94.10;;;;;;5017199;28;20040;-87
2021/05/20 19:45:14;;;;;;;2.15;1.65;;;15.80;93.90;;;;;;5016838;28;20053;-87
2021/05/20 19:51:05;;;;;;;3.20;1.80;;;15.60;94.00;;;;;;5017047;28;20029;-87
2021/05/20 20:03:04;;;;;;;3.13;2.00;;;15.30;94.10;;;;;;5016421;28;20466;-88
2021/05/20 20:08:57;;;;;;;4.95;1.77;;;15.20;94.30;;;;;;5016235;28;20087;-87
2021/05/20 20:18:49;;;;;;;5.95;2.28;;;15.10;94.50;;;;;;5016393;28;20048;-86
2021/05/20 20:24:59;;;;;;;4.78;2.05;;;15.00;94.50;;;;;;5007924;28;20073;-87
2021/05/20 20:30:53;;;;;;;2.65;1.70;;;14.80;94.50;;;;;;5015860;28;20149;-87
2021/05/20 20:36:49;;;;;;;4.35;2.03;;;14.70;94.50;;;;;;5015794;28;20498;-87
2021/05/20 20:42:42;;;;;;;5.80;2.42;;;14.70;94.50;;;;;;5015585;28;20570;-88
2021/05/20 20:48:43;;;;;;;5.15;2.20;;;14.50;94.50;;;;;;5015859;28;20041;-88
2021/05/20 20:54:42;;;;;;;3.47;1.80;;;14.40;94.60;;;;;;5015821;28;20497;-87
2021/05/20 21:01:44;;;;;;;2.88;1.80;;;14.30;94.50;;;;;;5015972;28;20044;-90
2021/05/20 21:07:42;;;;;;;3.75;2.00;;;14.10;94.50;;;;;;5023092;28;20076;-87
2021/05/20 21:13:30;;;;;;;5.63;2.10;;;14.10;94.70;;;;;;5017477;28;20029;-88
2021/05/20 21:19:21;;;;;;;4.95;2.30;;;14.00;94.70;;;;;;4996748;28;20434;-86
2021/05/20 21:25:14;;;;;;;5.65;2.40;;;13.80;94.50;;;;;;4988787;28;20077;-87
2021/05/20 21:31:03;;;;;;;6.40;2.72;;;13.60;94.50;;;;;;4995635;28;20037;-86
2021/05/20 21:36:52;;;;;;;5.97;2.50;;;13.50;94.50;;;;;;4997385;28;20041;-86
2021/05/20 21:42:41;;;;;;;6.43;2.78;;;13.40;94.60;;;;;;4995205;28;20096;-86
2021/05/20 21:48:29;;;;;;;5.80;2.50;;;13.30;94.50;;;;;;4994885;28;20393;-85
2021/05/20 21:54:21;;;;;;;6.28;2.67;;;13.20;94.70;;;;;;4995037;28;20085;-86
2021/05/20 22:00:16;;;;;;;6.28;2.63;;;13.10;94.70;;;;;;4994896;28;20126;-87
2021/05/20 22:06:09;;;;;;;5.30;2.45;;;13.10;94.80;;;;;;4994791;28;20041;-87
2021/05/20 22:12:08;;;;;;;5.25;2.28;;;13.00;94.70;;;;;;4994695;28;20041;-87
2021/05/20 22:21:59;;;;;;;5.80;2.80;;;12.90;94.80;;;;;;5014273;28;20084;-87
2021/05/20 22:27:59;;;;;;;5.05;2.58;;;12.80;94.80;;;;;;5014136;28;20072;-87
2021/05/20 22:33:48;;;;;;;5.00;2.50;;;12.70;94.70;;;;;;5014041;28;20033;-87
2021/05/20 22:39:38;;;;;;;6.68;3.00;;;12.60;94.80;;;;;;5013949;28;20048;-88
2021/05/20 22:45:26;;;;;;;6.65;3.15;;;12.50;94.60;;;;;;5013650;28;20084;-88
2021/05/20 22:51:15;;;;;;;5.68;2.75;;;12.30;94.60;;;;;;5014024;28;20145;-88
2021/05/20 22:57:05;;;;;;;6.95;3.03;;;12.10;94.60;;;;;;5013642;28;20121;-86
2021/05/20 23:02:53;;;;;;;6.07;2.83;;;12.00;94.60;;;;;;5013645;28;20108;-86
2021/05/20 23:08:42;;;;;;;8.10;3.20;;;11.90;94.80;;;;;;5013752;28;20041;-86
2021/05/20 23:14:31;;;;;;;5.75;2.60;;;11.90;94.80;;;;;;5013581;28;20597;-86
2021/05/20 23:24:19;;;;;;;5.82;2.80;;;11.80;94.80;;;;;;5013499;28;20574;-87
2021/05/20 23:30:08;;;;;;;5.50;2.65;;;11.70;94.90;;;;;;5013574;28;20049;-87
2021/05/20 23:35:57;;;;;;;8.07;3.22;;;11.60;94.70;;;;;;5013295;28;20053;-86
2021/05/20 23:41:45;;;;;;;7.57;3.58;;;11.40;94.70;;;;;;5013844;28;20150;-87
2021/05/20 23:47:35;;;;;;;7.75;3.20;;;11.40;94.90;;;;;;5013469;28;20041;-86
2021/05/20 23:53:24;;;;;;;5.32;2.70;;;11.30;94.70;;;;;;5016602;28;20109;-87
2021/05/20 23:59:13;;;;;;;6.72;3.28;;;11.30;94.70;;;;;;5016815;28;20072;-86
